Time;durP1;ratioP1;P1;durP2;ratioP2;P2;SDS_P1;SDS_P2;PMS_P1;PMS_P2;Temp;Humidity;BMP_temperature;BMP_pressure;BME280_temperature;BME280_humidity;BME280_pressure;Samples;Min_cycle;Max_cycle;Signal;HPM_P1;HPM_P2
2022/08/26 00:02:09;;;;;;;3.72;2.60;;;21.30;75.60;;;;;;6176741;28;20038;-78
2022/08/26 00:05:12;;;;;;;6.40;2.78;;;21.30;75.90;;;;;;6198236;28;20512;-76
2022/08/26 00:08:15;;;;;;;4.72;2.53;;;21.20;76.30;;;;;;6197527;28;20524;-77
2022/08/26 00:11:17;;;;;;;5.57;3.17;;;21.10;76.90;;;;;;6197979;28;20042;-77
2022/08/26 00:14:19;;;;;;;5.18;2.65;;;21.10;77.00;;;;;;6197506;28;20046;-76
2022/08/26 00:17:21;;;;;;;5.25;2.55;;;21.10;77.20;;;;;;6197240;28;20043;-77
2022/08/26 00:20:26;;;;;;;4.07;2.58;;;21.00;77.60;;;;;;6197792;28;20050;-77
2022/08/26 00:23:28;;;;;;;4.55;2.42;;;21.00;77.90;;;;;;6197500;28;20567;-76
2022/08/26 00:26:32;;;;;;;5.43;3.08;;;20.90;78.10;;;;;;6198028;28;20050;-77
2022/08/26 00:29:34;;;;;;;2.65;1.98;;;20.90;78.10;;;;;;6197116;28;20133;-78
2022/08/26 00:32:36;;;;;;;4.22;2.80;;;21.00;78.30;;;;;;6200551;28;20129;-79
2022/08/26 00:35:39;;;;;;;4.00;2.97;;;21.00;78.50;;;;;;6200309;28;20062;-79
2022/08/26 00:38:41;;;;;;;4.47;2.75;;;20.90;78.70;;;;;;6200895;28;20061;-78
2022/08/26 00:41:42;;;;;;;4.93;2.15;;;20.90;79.00;;;;;;6200276;28;20048;-78
2022/08/26 00:44:44;;;;;;;5.57;2.70;;;20.90;79.20;;;;;;6200468;28;20420;-78
2022/08/26 00:47:49;;;;;;;5.25;3.05;;;20.90;79.40;;;;;;6200021;28;20052;-79
2022/08/26 00:50:56;;;;;;;3.40;2.75;;;20.80;79.60;;;;;;6202857;28;20050;-78
2022/08/26 00:54:01;;;;;;;5.70;2.72;;;20.70;79.60;;;;;;6205041;28;20046;-77
2022/08/26 00:57:07;;;;;;;5.03;2.47;;;20.70;80.00;;;;;;6205203;28;20050;-78
2022/08/26 01:00:14;;;;;;;5.70;2.75;;;20.70;80.00;;;;;;6202843;28;20393;-78
2022/08/26 01:03:18;;;;;;;3.88;2.75;;;20.60;80.10;;;;;;6204960;28;20670;-78
2022/08/26 01:06:23;;;;;;;4.68;2.70;;;20.60;80.40;;;;;;6252939;28;20064;-78
2022/08/26 01:09:25;;;;;;;3.95;2.40;;;20.60;80.60;;;;;;6253172;28;20546;-78
2022/08/26 01:12:31;;;;;;;4.15;2.65;;;20.60;80.90;;;;;;6253839;28;20046;-78
2022/08/26 01:15:35;;;;;;;6.55;3.03;;;20.60;81.00;;;;;;6254089;28;20111;-77
2022/08/26 01:18:39;;;;;;;3.50;2.60;;;20.50;80.90;;;;;;6253837;28;20495;-78
2022/08/26 01:21:47;;;;;;;4.60;2.65;;;20.50;81.10;;;;;;6252946;28;20046;-78
2022/08/26 01:24:51;;;;;;;2.93;2.53;;;20.40;81.20;;;;;;6253658;28;20049;-78
2022/08/26 01:27:54;;;;;;;5.40;2.30;;;20.40;81.60;;;;;;6253848;28;20293;-79
2022/08/26 01:30:57;;;;;;;3.65;2.40;;;20.40;81.80;;;;;;6253900;28;20056;-78
2022/08/26 01:34:06;;;;;;;5.88;2.65;;;20.30;81.90;;;;;;6252051;28;20396;-77
2022/08/26 01:37:13;;;;;;;6.53;2.65;;;20.30;82.10;;;;;;6251517;28;20499;-77
2022/08/26 01:40:21;;;;;;;8.32;2.67;;;20.20;82.30;;;;;;6251529;28;20045;-77
2022/08/26 01:43:26;;;;;;;3.28;2.83;;;20.10;82.60;;;;;;6252442;28;20084;-76
2022/08/26 01:46:30;;;;;;;6.18;2.92;;;20.00;82.90;;;;;;6250750;28;20052;-77
2022/08/26 01:49:34;;;;;;;7.22;3.13;;;19.90;83.40;;;;;;6251344;28;20049;-76
2022/08/26 01:52:41;;;;;;;4.45;3.10;;;19.90;83.70;;;;;;6251834;28;20057;-77
2022/08/26 01:55:48;;;;;;;4.25;3.03;;;20.00;83.70;;;;;;6252814;28;20061;-77
2022/08/26 01:58:53;;;;;;;3.87;2.73;;;19.90;84.00;;;;;;6253385;28;20051;-77
2022/08/26 02:01:55;;;;;;;3.50;2.97;;;19.90;84.40;;;;;;6249833;28;20041;-77
2022/08/26 02:05:01;;;;;;;6.13;2.75;;;19.80;84.70;;;;;;6250970;28;20045;-77
2022/08/26 02:08:03;;;;;;;5.70;2.80;;;19.80;85.10;;;;;;6250563;28;20067;-77
2022/08/26 02:11:06;;;;;;;4.75;2.70;;;19.80;85.10;;;;;;6251231;28;20056;-77
2022/08/26 02:14:12;;;;;;;3.42;2.47;;;19.80;85.30;;;;;;6253233;28;20054;-77
2022/08/26 02:17:14;;;;;;;3.63;2.65;;;19.80;85.50;;;;;;6252144;28;20052;-77
2022/08/26 02:20:19;;;;;;;5.15;2.75;;;19.70;85.60;;;;;;6250240;28;20059;-77
2022/08/26 02:23:21;;;;;;;5.00;2.85;;;19.70;85.60;;;;;;6252269;28;20052;-76
2022/08/26 02:26:25;;;;;;;3.80;2.60;;;19.60;85.80;;;;;;6250967;28;20508;-77
2022/08/26 02:29:34;;;;;;;6.07;3.05;;;19.60;86.00;;;;;;6250463;28;20048;-77
2022/08/26 02:32:36;;;;;;;7.13;3.15;;;19.50;86.30;;;;;;6252291;28;20049;-77
2022/08/26 02:35:38;;;;;;;3.40;2.83;;;19.50;86.30;;;;;;6251753;28;20057;-77
2022/08/26 02:38:39;;;;;;;4.40;2.63;;;19.50;86.50;;;;;;6253170;28;20053;-77
2022/08/26 02:41:43;;;;;;;5.60;2.70;;;19.50;86.50;;;;;;6250483;28;20046;-77
2022/08/26 02:44:45;;;;;;;4.75;2.88;;;19.60;86.80;;;;;;6250329;28;20042;-77
2022/08/26 02:47:48;;;;;;;3.72;2.88;;;19.60;87.10;;;;;;6249587;28;20048;-77
2022/08/26 02:50:49;;;;;;;5.32;3.05;;;19.60;87.10;;;;;;6251242;28;20053;-77
2022/08/26 02:53:51;;;;;;;6.55;2.60;;;19.50;87.50;;;;;;6250060;28;20052;-77
2022/08/26 02:56:55;;;;;;;3.97;2.65;;;19.40;87.70;;;;;;6249746;28;20053;-77
2022/08/26 02:59:57;;;;;;;3.70;3.03;;;19.40;88.00;;;;;;6249482;28;20075;-77
2022/08/26 03:02:59;;;;;;;4.57;2.80;;;19.40;88.00;;;;;;6250014;28;20042;-77
2022/08/26 03:06:01;;;;;;;4.65;2.88;;;19.40;87.80;;;;;;6248900;28;20050;-77
2022/08/26 03:09:04;;;;;;;4.15;2.75;;;19.40;87.80;;;;;;6249281;28;20053;-77
2022/08/26 03:12:07;;;;;;;6.28;3.00;;;19.30;88.00;;;;;;6249377;28;20055;-77
2022/08/26 03:15:10;;;;;;;3.80;2.95;;;19.20;88.10;;;;;;6249513;28;20057;-77
2022/08/26 03:18:12;;;;;;;5.18;3.33;;;19.10;88.60;;;;;;6248841;28;20045;-77
2022/08/26 03:21:16;;;;;;;3.63;3.03;;;19.00;89.20;;;;;;6248988;28;20041;-77
2022/08/26 03:24:18;;;;;;;4.13;3.15;;;19.00;89.80;;;;;;6248997;28;20419;-77
2022/08/26 03:27:21;;;;;;;4.13;2.97;;;18.90;90.10;;;;;;6250507;28;20049;-77
2022/08/26 03:30:43;;;;;;;4.32;2.70;;;18.90;90.20;;;;;;6249250;28;20046;-77
2022/08/26 03:33:44;;;;;;;4.18;2.80;;;18.90;90.30;;;;;;6249425;28;20068;-77
2022/08/26 03:36:46;;;;;;;5.68;2.78;;;18.90;90.30;;;;;;6249416;28;20048;-77
2022/08/26 03:39:48;;;;;;;6.05;3.30;;;18.90;90.30;;;;;;6248365;28;20052;-77
2022/08/26 03:42:52;;;;;;;4.07;2.88;;;18.80;90.30;;;;;;6249615;28;20051;-77
2022/08/26 03:45:54;;;;;;;4.40;3.28;;;18.80;90.30;;;;;;6249210;28;20046;-77
2022/08/26 03:48:56;;;;;;;6.55;3.25;;;18.80;90.40;;;;;;6248206;28;20049;-77
2022/08/26 03:51:58;;;;;;;8.50;3.42;;;18.80;90.40;;;;;;6248054;28;20153;-77
2022/08/26 03:55:00;;;;;;;11.60;4.43;;;18.80;90.40;;;;;;6249433;28;20049;-77
2022/08/26 03:58:04;;;;;;;10.07;3.38;;;18.80;90.40;;;;;;6225513;28;20057;-77
2022/08/26 04:01:06;;;;;;;3.35;2.28;;;18.80;90.40;;;;;;6251195;28;20045;-78
2022/08/26 04:04:07;;;;;;;6.40;3.03;;;18.70;90.40;;;;;;6251415;28;20068;-77
2022/08/26 04:07:09;;;;;;;9.32;3.15;;;18.70;90.50;;;;;;6252965;28;20053;-78
2022/08/26 04:10:12;;;;;;;4.65;2.45;;;18.70;90.60;;;;;;6252368;28;20045;-78
2022/08/26 04:13:15;;;;;;;4.57;2.75;;;18.70;90.50;;;;;;6249035;28;20419;-77
2022/08/26 04:16:17;;;;;;;4.85;3.63;;;18.70;90.40;;;;;;6249329;28;20510;-77
2022/08/26 04:19:21;;;;;;;5.93;3.30;;;18.70;90.60;;;;;;6249449;28;20053;-77
2022/08/26 04:22:23;;;;;;;3.63;2.63;;;18.70;90.70;;;;;;6249088;28;20184;-77
2022/08/26 04:25:24;;;;;;;3.25;2.55;;;18.70;90.70;;;;;;6251107;28;20527;-77
2022/08/26 04:28:28;;;;;;;7.00;2.83;;;18.80;90.70;;;;;;6257842;28;20045;-78
2022/08/26 04:31:30;;;;;;;5.70;3.05;;;18.80;90.50;;;;;;6257306;28;20090;-78
2022/08/26 04:34:32;;;;;;;5.63;2.70;;;18.80;90.50;;;;;;6259072;28;20049;-78
2022/08/26 04:37:33;;;;;;;4.25;3.13;;;18.70;90.60;;;;;;6257585;28;20053;-77
2022/08/26 04:40:36;;;;;;;5.82;2.85;;;18.70;90.70;;;;;;6257942;28;20450;-78
2022/08/26 04:43:40;;;;;;;4.30;3.13;;;18.70;90.70;;;;;;6257779;28;20109;-78
2022/08/26 04:46:42;;;;;;;6.20;3.17;;;18.60;90.70;;;;;;6262089;28;20072;-78
2022/08/26 04:49:44;;;;;;;7.90;3.55;;;18.70;90.80;;;;;;6261176;28;20055;-78
2022/08/26 04:52:45;;;;;;;8.25;3.08;;;18.60;90.90;;;;;;6259055;28;20042;-78
2022/08/26 04:55:47;;;;;;;4.75;3.35;;;18.70;90.80;;;;;;6259251;28;20052;-78
2022/08/26 04:58:51;;;;;;;5.38;2.90;;;18.70;90.80;;;;;;6260295;28;20060;-78
2022/08/26 05:01:55;;;;;;;7.05;3.72;;;18.70;90.90;;;;;;6260280;28;20053;-78
2022/08/26 05:04:57;;;;;;;5.15;3.20;;;18.80;91.00;;;;;;6260061;28;20053;-78
2022/08/26 05:07:59;;;;;;;7.60;3.70;;;18.90;90.80;;;;;;6260451;28;20050;-78
2022/08/26 05:11:05;;;;;;;5.60;2.97;;;18.90;90.60;;;;;;6259870;28;20518;-78
2022/08/26 05:14:08;;;;;;;5.25;2.90;;;19.00;90.50;;;;;;6259565;28;20037;-78
2022/08/26 05:17:10;;;;;;;7.40;3.47;;;19.10;90.30;;;;;;6259324;28;20065;-78
2022/08/26 05:20:11;;;;;;;4.30;3.30;;;19.10;90.30;;;;;;6259280;28;20045;-78
2022/08/26 05:23:14;;;;;;;5.60;3.00;;;19.10;90.20;;;;;;6260129;28;20060;-78
2022/08/26 05:26:16;;;;;;;4.07;2.95;;;19.20;90.10;;;;;;6260360;28;20137;-78
2022/08/26 05:29:19;;;;;;;5.35;3.80;;;19.30;89.70;;;;;;6258792;28;20124;-78
2022/08/26 05:32:21;;;;;;;4.50;2.88;;;19.50;89.40;;;;;;6259556;28;20045;-78
2022/08/26 05:35:23;;;;;;;5.28;3.50;;;19.70;88.80;;;;;;6259751;28;20056;-78
2022/08/26 05:38:25;;;;;;;14.32;4.40;;;19.90;88.30;;;;;;6263480;28;20053;-78
2022/08/26 05:41:30;;;;;;;16.05;4.15;;;20.10;87.70;;;;;;6264607;28;20189;-78
2022/08/26 05:44:33;;;;;;;9.05;3.53;;;20.30;87.00;;;;;;6264698;28;20046;-78
2022/08/26 05:47:35;;;;;;;14.63;3.45;;;20.60;86.30;;;;;;6263522;28;20060;-78
2022/08/26 05:50:37;;;;;;;7.00;3.30;;;20.90;85.30;;;;;;6264425;28;20053;-78
2022/08/26 05:53:41;;;;;;;11.77;3.65;;;21.20;84.10;;;;;;6264792;28;20521;-78
2022/08/26 05:56:42;;;;;;;13.27;3.90;;;21.60;83.00;;;;;;6264251;28;20055;-78
2022/08/26 05:59:45;;;;;;;12.20;3.50;;;22.20;81.20;;;;;;6265515;28;20491;-78
2022/08/26 06:02:47;;;;;;;8.15;2.72;;;23.20;78.20;;;;;;6264001;28;20496;-78
2022/08/26 06:05:49;;;;;;;7.22;3.08;;;24.30;73.80;;;;;;6264554;28;20049;-78
2022/08/26 06:08:51;;;;;;;11.73;3.08;;;24.80;72.00;;;;;;6263604;28;20069;-78
2022/08/26 06:11:54;;;;;;;5.97;4.20;;;24.90;71.30;;;;;;6264848;28;20566;-78
2022/08/26 06:14:57;;;;;;;6.50;3.50;;;25.00;71.10;;;;;;6262013;28;20116;-78
2022/08/26 06:17:59;;;;;;;5.32;3.70;;;25.10;71.50;;;;;;6253290;28;20052;-78
2022/08/26 06:21:11;;;;;;;6.00;4.45;;;25.10;71.60;;;;;;6252604;28;20109;-77
2022/08/26 06:27:33;;;;;;;6.13;3.22;;;25.10;71.60;;;;;;6253533;28;20045;-78
2022/08/26 06:30:41;;;;;;;6.13;3.10;;;25.50;71.00;;;;;;6254351;28;20058;-77
2022/08/26 06:33:43;;;;;;;8.13;4.00;;;25.90;69.40;;;;;;6250165;28;20085;-77
2022/08/26 06:36:46;;;;;;;11.30;4.05;;;26.20;68.20;;;;;;6249805;28;20048;-77
2022/08/26 06:39:47;;;;;;;8.30;3.38;;;26.60;66.60;;;;;;6249423;28;20067;-77
2022/08/26 06:42:49;;;;;;;8.68;3.60;;;27.10;65.10;;;;;;6250085;28;20055;-77
2022/08/26 06:46:00;;;;;;;8.60;4.03;;;27.10;63.70;;;;;;6249725;28;20049;-77
2022/08/26 06:49:03;;;;;;;10.63;3.05;;;26.80;64.50;;;;;;6248498;28;20046;-77
2022/08/26 06:52:04;;;;;;;11.25;3.47;;;26.50;65.30;;;;;;6249194;28;20423;-77
2022/08/26 06:55:07;;;;;;;5.32;2.83;;;26.30;65.90;;;;;;6250181;28;20053;-77
2022/08/26 06:58:09;;;;;;;4.55;2.72;;;26.30;66.00;;;;;;6248435;28;20049;-77
2022/08/26 07:01:20;;;;;;;11.63;3.85;;;26.30;65.80;;;;;;6248743;28;20057;-77
2022/08/26 07:04:23;;;;;;;6.13;2.85;;;26.10;66.30;;;;;;6248925;28;20546;-77
2022/08/26 07:07:25;;;;;;;8.02;2.65;;;25.90;66.80;;;;;;6249104;28;20431;-77
2022/08/26 07:10:27;;;;;;;5.80;2.55;;;25.60;67.20;;;;;;6249503;28;20046;-77
2022/08/26 07:13:29;;;;;;;4.88;2.63;;;25.50;67.80;;;;;;6249171;28;20049;-77
2022/08/26 07:16:32;;;;;;;7.07;2.47;;;25.60;67.80;;;;;;6248818;28;20067;-77
2022/08/26 07:19:34;;;;;;;4.50;2.92;;;25.90;67.70;;;;;;6249786;28;20056;-77
2022/08/26 07:22:36;;;;;;;3.75;2.35;;;26.70;66.00;;;;;;6250219;28;20060;-77
2022/08/26 07:25:39;;;;;;;5.38;2.42;;;27.20;64.00;;;;;;6249146;28;20054;-77
2022/08/26 07:28:41;;;;;;;4.45;2.72;;;27.30;62.90;;;;;;6248607;28;20057;-77
2022/08/26 07:31:44;;;;;;;3.40;2.63;;;27.30;62.60;;;;;;6248086;28;20566;-77
2022/08/26 07:34:46;;;;;;;5.40;2.60;;;27.30;61.90;;;;;;6249428;28;20054;-77
2022/08/26 07:37:48;;;;;;;3.00;2.38;;;27.30;62.00;;;;;;6247917;28;20227;-77
2022/08/26 07:40:49;;;;;;;7.25;2.88;;;27.60;61.70;;;;;;6248521;28;20054;-77
2022/08/26 07:43:52;;;;;;;4.65;3.00;;;27.80;61.10;;;;;;6248670;28;20045;-77
2022/08/26 07:46:55;;;;;;;8.75;3.38;;;28.00;60.50;;;;;;6248991;28;20102;-77
2022/08/26 07:49:58;;;;;;;7.38;3.35;;;28.30;59.80;;;;;;6247997;28;20053;-77
2022/08/26 07:53:01;;;;;;;4.22;2.65;;;28.80;57.80;;;;;;6249550;28;20530;-77
2022/08/26 07:56:03;;;;;;;8.25;3.47;;;29.10;57.40;;;;;;6249591;28;20057;-78
2022/08/26 07:59:05;;;;;;;5.22;3.25;;;29.20;57.20;;;;;;6248734;28;20045;-78
2022/08/26 08:02:08;;;;;;;4.18;2.72;;;29.20;56.30;;;;;;6248474;28;20525;-78
2022/08/26 08:05:10;;;;;;;6.13;2.88;;;30.40;55.40;;;;;;6249260;28;20060;-78
2022/08/26 08:08:12;;;;;;;4.35;2.80;;;31.60;52.70;;;;;;6249649;28;20049;-78
2022/08/26 08:11:14;;;;;;;8.02;3.17;;;33.20;49.80;;;;;;6250942;28;20500;-79
2022/08/26 08:14:17;;;;;;;4.90;3.13;;;33.90;47.90;;;;;;6222183;28;20415;-78
2022/08/26 08:17:20;;;;;;;5.82;3.15;;;34.10;48.00;;;;;;6207217;28;20046;-78
2022/08/26 08:20:22;;;;;;;5.00;3.28;;;34.50;46.70;;;;;;6200495;28;20052;-77
2022/08/26 08:23:24;;;;;;;5.30;2.88;;;35.50;45.00;;;;;;6199511;28;20061;-77
2022/08/26 08:26:26;;;;;;;4.93;2.95;;;36.20;44.00;;;;;;6196035;28;20054;-78
2022/08/26 08:29:29;;;;;;;3.83;2.63;;;36.00;43.40;;;;;;6197808;28;20054;-77
2022/08/26 08:32:32;;;;;;;4.13;3.17;;;35.80;43.50;;;;;;6197943;28;20046;-77
2022/08/26 08:35:34;;;;;;;6.53;2.50;;;37.00;42.20;;;;;;6198310;28;20050;-78
2022/08/26 08:38:36;;;;;;;6.20;3.35;;;38.50;40.50;;;;;;6201139;28;20424;-79
2022/08/26 08:41:48;;;;;;;4.70;2.63;;;39.50;38.90;;;;;;6200589;28;20060;-78
2022/08/26 08:44:52;;;;;;;7.65;2.75;;;40.10;38.00;;;;;;6201430;28;20072;-78
2022/08/26 08:47:57;;;;;;;4.45;3.10;;;40.50;37.20;;;;;;6196775;28;20049;-77
2022/08/26 08:51:08;;;;;;;8.70;2.65;;;40.70;36.60;;;;;;6198326;28;20057;-77
2022/08/26 08:54:10;;;;;;;5.10;2.33;;;40.50;36.70;;;;;;6219539;28;20046;-78
2022/08/26 08:57:18;;;;;;;4.55;2.20;;;40.50;36.40;;;;;;6221779;28;20053;-78
2022/08/26 09:00:21;;;;;;;7.47;2.60;;;40.10;36.90;;;;;;6222801;28;20057;-78
2022/08/26 09:03:40;;;;;;;5.78;2.72;;;40.40;36.60;;;;;;6223540;28;20053;-77
2022/08/26 09:06:42;;;;;;;5.18;2.75;;;40.90;35.90;;;;;;6222732;28;20053;-78
2022/08/26 09:09:48;;;;;;;4.93;2.50;;;41.40;35.60;;;;;;6221716;28;20061;-78
2022/08/26 09:12:50;;;;;;;6.20;1.95;;;41.70;34.80;;;;;;6225882;28;20045;-78
2022/08/26 09:16:01;;;;;;;6.57;2.67;;;41.90;34.50;;;;;;6225026;28;20416;-78
2022/08/26 09:19:17;;;;;;;3.65;2.53;;;42.10;34.40;;;;;;6210772;28;20061;-78
2022/08/26 09:22:30;;;;;;;3.30;1.92;;;42.40;33.80;;;;;;6202424;28;20227;-78
2022/08/26 09:25:31;;;;;;;2.45;1.75;;;42.70;33.60;;;;;;6202052;28;20125;-78
2022/08/26 09:28:33;;;;;;;7.45;2.20;;;42.80;33.30;;;;;;6202267;28;20055;-78
2022/08/26 09:31:37;;;;;;;2.67;1.92;;;43.10;32.90;;;;;;6202564;28;20424;-77
2022/08/26 09:34:53;;;;;;;4.90;2.25;;;43.20;32.60;;;;;;6202894;28;20042;-79
2022/08/26 09:37:55;;;;;;;10.40;2.83;;;42.90;32.40;;;;;;6201481;28;20046;-77
2022/08/26 09:40:59;;;;;;;3.85;1.92;;;42.70;32.80;;;;;;6204807;28;20539;-78
2022/08/26 09:44:16;;;;;;;2.45;1.65;;;42.50;33.00;;;;;;6199278;28;20432;-78
2022/08/26 09:47:22;;;;;;;4.72;1.92;;;42.60;33.10;;;;;;6191287;28;20058;-78
2022/08/26 09:50:28;;;;;;;5.53;2.20;;;42.70;33.00;;;;;;6199643;28;20428;-78
2022/08/26 09:53:33;;;;;;;3.30;2.20;;;42.80;32.60;;;;;;6216543;28;20046;-77
2022/08/26 09:56:37;;;;;;;3.70;1.77;;;42.40;32.60;;;;;;6224113;28;20046;-77
2022/08/26 09:59:39;;;;;;;6.78;2.20;;;41.70;33.00;;;;;;6227634;28;20563;-78
2022/08/26 10:02:44;;;;;;;2.85;2.05;;;41.10;33.50;;;;;;6232570;28;20053;-78
2022/08/26 10:05:58;;;;;;;4.20;2.05;;;40.40;34.00;;;;;;6234983;28;20523;-80
2022/08/26 10:09:02;;;;;;;3.60;2.13;;;39.60;35.20;;;;;;6233639;28;20057;-78
2022/08/26 10:12:08;;;;;;;6.95;2.05;;;39.10;36.10;;;;;;6222591;28;20047;-78
2022/08/26 10:15:11;;;;;;;4.47;2.70;;;38.40;36.60;;;;;;6206280;28;20447;-78
2022/08/26 10:18:18;;;;;;;8.80;2.45;;;38.00;37.40;;;;;;6193861;28;20051;-78
2022/08/26 10:21:25;;;;;;;6.80;2.42;;;37.90;37.60;;;;;;6181490;28;20046;-78
2022/08/26 10:24:31;;;;;;;5.72;2.38;;;37.70;37.90;;;;;;6182766;28;20485;-78
2022/08/26 10:27:39;;;;;;;8.10;2.85;;;37.70;38.10;;;;;;6180599;28;20519;-78
2022/08/26 10:30:46;;;;;;;3.20;1.88;;;37.80;37.80;;;;;;6181234;28;20047;-78
2022/08/26 10:33:48;;;;;;;7.78;2.38;;;37.90;38.00;;;;;;6197707;28;20504;-81
2022/08/26 10:36:56;;;;;;;10.48;2.63;;;37.70;37.90;;;;;;6205300;28;20054;-77
2022/08/26 10:40:02;;;;;;;7.55;3.15;;;37.40;38.10;;;;;;6194844;28;20535;-77
2022/08/26 10:43:08;;;;;;;7.30;2.95;;;37.30;38.60;;;;;;6200308;28;20062;-79
2022/08/26 10:46:15;;;;;;;10.90;2.67;;;37.60;38.10;;;;;;6201873;28;20043;-79
2022/08/26 10:49:17;;;;;;;;;;;37.90;37.90;;;;;;6191198;28;20054;-79
2022/08/26 10:52:28;;;;;;;4.30;2.17;;;38.10;37.70;;;;;;6180140;28;19945;-78
2022/08/26 10:55:35;;;;;;;3.22;2.20;;;38.40;37.10;;;;;;6179871;28;20061;-78
2022/08/26 10:58:49;;;;;;;7.80;2.53;;;38.60;36.60;;;;;;6178205;28;20050;-78
2022/08/26 11:01:58;;;;;;;3.63;2.00;;;38.90;36.50;;;;;;6178452;28;20123;-77
2022/08/26 11:05:03;;;;;;;4.45;2.30;;;39.20;36.40;;;;;;6178636;28;20512;-78
2022/08/26 11:08:29;;;;;;;8.65;2.05;;;39.50;36.10;;;;;;6179015;28;20525;-78
2022/08/26 11:11:48;;;;;;;15.00;2.63;;;39.70;35.70;;;;;;6177375;28;20374;-78
2022/08/26 11:14:50;;;;;;;6.28;2.20;;;39.90;35.30;;;;;;6178938;28;20070;-78
2022/08/26 11:17:58;;;;;;;6.05;2.15;;;40.00;35.10;;;;;;6186088;28;20046;-78
2022/08/26 11:21:00;;;;;;;2.38;1.48;;;40.20;34.80;;;;;;6177367;28;20053;-77
2022/08/26 11:24:03;;;;;;;3.05;1.60;;;40.20;34.10;;;;;;6177956;28;20500;-77
2022/08/26 11:27:06;;;;;;;8.07;1.80;;;40.30;33.70;;;;;;6177296;28;20062;-78
2022/08/26 11:30:48;;;;;;;2.88;1.65;;;39.90;34.10;;;;;;6175149;28;20050;-77
2022/08/26 11:33:51;;;;;;;5.68;1.90;;;39.80;34.70;;;;;;6175112;28;20043;-78
2022/08/26 11:36:59;;;;;;;6.35;1.80;;;40.10;34.10;;;;;;6177862;28;20046;-78
2022/08/26 11:40:06;;;;;;;7.13;1.85;;;40.50;33.80;;;;;;6182517;28;20118;-77
2022/08/26 11:43:20;;;;;;;1.75;1.40;;;40.60;33.50;;;;;;6192112;28;20072;-78
2022/08/26 11:46:25;;;;;;;3.33;0.93;;;41.00;33.60;;;;;;6200589;28;20049;-78
2022/08/26 11:49:28;;;;;;;4.15;1.25;;;41.30;32.70;;;;;;6191727;28;20150;-78
2022/08/26 11:52:30;;;;;;;1.92;1.35;;;41.50;32.10;;;;;;6206317;28;20181;-78
2022/08/26 11:55:35;;;;;;;2.75;1.30;;;41.70;32.00;;;;;;6209138;28;20060;-78
2022/08/26 11:58:43;;;;;;;6.78;1.58;;;41.80;31.80;;;;;;6208196;28;20057;-78
2022/08/26 12:01:50;;;;;;;3.40;0.95;;;41.90;31.60;;;;;;6204930;28;20500;-79
2022/08/26 12:04:53;;;;;;;2.83;1.25;;;42.00;31.20;;;;;;6202204;28;20072;-79
2022/08/26 12:07:55;;;;;;;3.33;1.10;;;42.00;31.20;;;;;;6201605;28;20046;-79
2022/08/26 12:11:08;;;;;;;2.10;1.23;;;41.70;31.00;;;;;;6201892;28;20046;-79
2022/08/26 12:14:21;;;;;;;2.92;1.23;;;41.70;31.30;;;;;;6201560;28;20120;-79
2022/08/26 12:17:27;;;;;;;2.15;1.30;;;41.60;31.10;;;;;;6193354;28;20042;-78
2022/08/26 12:20:44;;;;;;;4.25;1.58;;;41.70;31.00;;;;;;6178518;28;20071;-78
2022/08/26 12:23:47;;;;;;;;;;;41.80;30.80;;;;;;6181081;28;20054;-78
2022/08/26 12:26:50;;;;;;;1.83;1.20;;;41.90;31.10;;;;;;6177646;28;19933;-79
2022/08/26 12:30:05;;;;;;;1.35;1.02;;;42.00;30.90;;;;;;6176665;28;20046;-79
2022/08/26 12:33:12;;;;;;;4.78;1.83;;;42.00;30.40;;;;;;6179766;28;20051;-80
2022/08/26 12:36:22;;;;;;;3.30;1.00;;;42.00;30.40;;;;;;6182715;28;20053;-79
2022/08/26 12:39:27;;;;;;;6.65;1.45;;;42.00;30.50;;;;;;6202270;28;20050;-79
2022/08/26 12:42:41;;;;;;;3.60;1.35;;;41.90;30.70;;;;;;6193377;28;20051;-79
2022/08/26 12:45:55;;;;;;;1.88;1.17;;;41.70;30.70;;;;;;6202393;28;20062;-79
2022/08/26 12:49:00;;;;;;;2.35;1.13;;;41.90;30.30;;;;;;6213133;28;20077;-79
2022/08/26 12:52:02;;;;;;;2.08;1.50;;;42.20;30.40;;;;;;6231100;28;20056;-79
2022/08/26 12:55:06;;;;;;;4.05;1.60;;;42.40;30.30;;;;;;6232179;28;20054;-79
2022/08/26 12:58:25;;;;;;;5.20;1.50;;;42.40;30.00;;;;;;6209576;28;20054;-80
2022/08/26 13:01:35;;;;;;;3.05;1.77;;;42.40;30.10;;;;;;6207457;28;20046;-79
2022/08/26 13:04:41;;;;;;;9.82;2.25;;;42.30;30.10;;;;;;6207569;28;20046;-79
2022/08/26 13:07:43;;;;;;;;;;;42.20;30.50;;;;;;6207500;28;20050;-79
2022/08/26 13:10:47;;;;;;;1.75;1.33;;;42.20;30.70;;;;;;6206822;28;19930;-79
2022/08/26 13:13:52;;;;;;;6.32;2.03;;;42.10;31.20;;;;;;6206588;28;20074;-79
2022/08/26 13:16:54;;;;;;;6.32;1.95;;;42.10;31.40;;;;;;6199077;28;20059;-79
2022/08/26 13:19:57;;;;;;;5.18;2.05;;;42.00;31.50;;;;;;6188172;28;20054;-79
2022/08/26 13:22:59;;;;;;;10.38;2.33;;;41.80;31.80;;;;;;6193927;28;20503;-79
2022/08/26 13:26:00;;;;;;;3.92;1.83;;;41.50;32.30;;;;;;6193412;28;20050;-79
2022/08/26 13:29:04;;;;;;;7.80;1.80;;;41.10;32.20;;;;;;6204083;28;20053;-78
2022/08/26 13:32:07;;;;;;;8.77;2.30;;;40.60;32.60;;;;;;6205128;28;20129;-79
2022/08/26 13:35:08;;;;;;;2.15;1.48;;;40.30;33.20;;;;;;6207220;28;20047;-79
2022/08/26 13:38:13;;;;;;;8.95;1.80;;;39.80;33.70;;;;;;6205312;28;20448;-79
2022/08/26 13:41:15;;;;;;;4.00;1.98;;;39.50;34.50;;;;;;6205770;28;20054;-78
2022/08/26 13:44:19;;;;;;;7.97;2.13;;;39.10;35.00;;;;;;6194010;28;20051;-78
2022/08/26 13:47:21;;;;;;;3.10;1.77;;;38.60;35.80;;;;;;6194946;28;20052;-78
2022/08/26 13:50:23;;;;;;;4.80;1.70;;;38.20;36.50;;;;;;6180858;28;20061;-78
2022/08/26 13:53:25;;;;;;;2.97;1.50;;;38.00;36.50;;;;;;6179492;28;20047;-78
2022/08/26 13:56:29;;;;;;;5.43;2.08;;;37.80;36.80;;;;;;6178256;28;20053;-78
2022/08/26 13:59:32;;;;;;;7.43;2.78;;;37.60;37.20;;;;;;6178017;28;20051;-77
2022/08/26 14:02:33;;;;;;;5.68;2.10;;;37.40;37.50;;;;;;6179274;28;20061;-77
2022/08/26 14:05:35;;;;;;;5.68;2.08;;;37.30;36.80;;;;;;6183013;28;20042;-77
2022/08/26 14:08:38;;;;;;;8.65;2.38;;;37.30;37.20;;;;;;6194216;28;20039;-77
2022/08/26 14:11:39;;;;;;;6.32;2.20;;;37.30;37.10;;;;;;6193365;28;20050;-77
2022/08/26 14:14:42;;;;;;;12.43;1.95;;;37.50;37.30;;;;;;6203149;28;20562;-77
2022/08/26 14:17:45;;;;;;;8.75;2.10;;;37.40;37.60;;;;;;6193039;28;20046;-78
2022/08/26 14:20:49;;;;;;;5.78;1.80;;;37.50;37.70;;;;;;6179320;28;20053;-77
2022/08/26 14:23:52;;;;;;;4.53;2.42;;;37.60;37.60;;;;;;6178234;28;20050;-77
2022/08/26 14:26:54;;;;;;;2.50;1.40;;;37.60;37.50;;;;;;6181029;28;20047;-77
2022/08/26 14:29:58;;;;;;;4.75;2.15;;;37.60;37.60;;;;;;6177292;28;20054;-77
2022/08/26 14:33:00;;;;;;;2.50;1.85;;;37.60;38.10;;;;;;6176668;28;20057;-78
2022/08/26 14:39:17;;;;;;;4.15;1.60;;;37.20;38.00;;;;;;6184969;28;20647;-78
2022/08/26 14:42:23;;;;;;;6.65;1.60;;;36.90;38.60;;;;;;6202282;28;20054;-77
2022/08/26 14:45:30;;;;;;;5.18;1.65;;;36.70;38.60;;;;;;6187789;28;20057;-78
2022/08/26 14:48:32;;;;;;;7.95;1.60;;;36.70;38.90;;;;;;6186127;28;20043;-77
2022/08/26 14:51:33;;;;;;;2.85;2.10;;;36.50;39.30;;;;;;6177027;28;20051;-77
2022/08/26 14:54:36;;;;;;;2.83;1.90;;;36.30;39.90;;;;;;6177962;28;20070;-78
2022/08/26 14:57:38;;;;;;;5.03;2.13;;;36.10;40.00;;;;;;6177832;28;20125;-78
2022/08/26 15:00:41;;;;;;;4.97;2.22;;;35.80;40.50;;;;;;6177960;28;20051;-78
2022/08/26 15:03:43;;;;;;;4.32;2.42;;;35.40;41.10;;;;;;6178085;28;20054;-77
2022/08/26 15:06:45;;;;;;;4.18;2.40;;;35.10;41.30;;;;;;6177767;28;20413;-77
2022/08/26 15:09:46;;;;;;;6.30;2.70;;;34.80;41.90;;;;;;6175283;28;20055;-77
2022/08/26 15:12:48;;;;;;;6.28;2.53;;;34.50;42.10;;;;;;6176720;28;20398;-78
2022/08/26 15:15:51;;;;;;;5.75;3.05;;;34.20;42.70;;;;;;6182794;28;20050;-78
2022/08/26 15:18:53;;;;;;;5.05;2.88;;;33.80;43.20;;;;;;6184903;28;20047;-78
2022/08/26 15:21:56;;;;;;;9.32;3.40;;;33.60;43.90;;;;;;6176789;28;20412;-77
2022/08/26 15:24:58;;;;;;;6.72;3.22;;;33.20;44.60;;;;;;6177149;28;20417;-77
2022/08/26 15:28:00;;;;;;;7.47;3.40;;;33.10;45.20;;;;;;6176611;28;20043;-78
2022/08/26 15:31:03;;;;;;;7.38;3.75;;;32.90;45.60;;;;;;6176803;28;20057;-78
2022/08/26 15:34:07;;;;;;;10.48;4.30;;;32.80;46.00;;;;;;6176524;28;20065;-77
2022/08/26 15:37:09;;;;;;;5.57;3.78;;;32.70;46.30;;;;;;6176936;28;20061;-78
2022/08/26 15:40:11;;;;;;;9.32;3.65;;;32.60;46.70;;;;;;6176719;28;20134;-78
2022/08/26 15:43:13;;;;;;;4.85;3.20;;;32.50;47.00;;;;;;6176104;28;20051;-78
2022/08/26 15:46:17;;;;;;;10.27;4.60;;;32.30;47.30;;;;;;6189385;28;20042;-78
2022/08/26 15:49:19;;;;;;;11.80;4.07;;;32.20;47.80;;;;;;6190724;28;20058;-78
2022/08/26 15:52:21;;;;;;;6.65;4.32;;;31.90;48.30;;;;;;6200086;28;20050;-78
2022/08/26 15:55:23;;;;;;;8.90;4.22;;;31.90;48.60;;;;;;6200819;28;20050;-77
2022/08/26 15:58:26;;;;;;;6.25;3.38;;;31.90;48.90;;;;;;6200422;28;20054;-79
2022/08/26 16:01:30;;;;;;;5.75;4.20;;;31.70;48.90;;;;;;6199335;28;20049;-77
2022/08/26 16:04:31;;;;;;;12.55;3.80;;;31.60;49.70;;;;;;6197815;28;20054;-77
2022/08/26 16:07:33;;;;;;;7.32;3.45;;;31.50;49.90;;;;;;6198536;28;20062;-77